Time;durP1;ratioP1;P1;durP2;ratioP2;P2;SDS_P1;SDS_P2;PMS_P1;PMS_P2;Temp;Humidity;BMP_temperature;BMP_pressure;BME280_temperature;BME280_humidity;BME280_pressure;Samples;Min_cycle;Max_cycle;Signal;HPM_P1;HPM_P2
2023/09/13 00:01:27;;;;;;;15.77;14.60;;;;;;;18.50;100.00;96614.16;4938535;28;20641;-64
2023/09/13 00:03:58;;;;;;;15.77;14.43;;;;;;;18.48;100.00;96614.41;4937859;28;20609;-64
2023/09/13 00:06:29;;;;;;;15.50;14.40;;;;;;;18.29;100.00;96607.72;4869187;28;21534;-64
2023/09/13 00:08:57;;;;;;;15.93;14.63;;;;;;;18.33;100.00;96614.19;4893549;28;20230;-66
2023/09/13 00:11:24;;;;;;;15.97;14.63;;;;;;;18.20;100.00;96604.66;4937872;28;20757;-66
2023/09/13 00:13:52;;;;;;;16.87;15.57;;;;;;;18.28;100.00;96619.50;4935008;28;20231;-60
2023/09/13 00:16:20;;;;;;;16.67;15.27;;;;;;;18.31;100.00;96609.09;4922372;28;20294;-58
2023/09/13 00:18:48;;;;;;;15.63;14.37;;;;;;;18.28;100.00;96611.47;4903123;28;20297;-62
2023/09/13 00:21:17;;;;;;;16.03;14.73;;;;;;;18.23;100.00;96620.25;4936458;28;20642;-64
2023/09/13 00:23:46;;;;;;;15.77;14.57;;;;;;;18.20;100.00;96610.03;4935903;28;20795;-60
2023/09/13 00:26:13;;;;;;;15.90;14.40;;;;;;;18.16;100.00;96608.88;4940429;28;21972;-64
2023/09/13 00:28:40;;;;;;;16.17;14.73;;;;;;;18.15;100.00;96604.56;4936932;28;21163;-58
2023/09/13 00:31:09;;;;;;;15.00;13.83;;;;;;;18.12;100.00;96605.91;4939969;28;20306;-65
2023/09/13 00:33:37;;;;;;;16.77;15.50;;;;;;;18.08;100.00;96604.78;4936613;28;20199;-63
2023/09/13 00:36:05;;;;;;;17.13;15.67;;;;;;;18.11;100.00;96609.63;4938627;28;20215;-63
2023/09/13 00:38:34;;;;;;;15.77;14.57;;;;;;;18.06;100.00;96610.38;4930977;28;20207;-60
2023/09/13 00:41:01;;;;;;;16.60;15.10;;;;;;;18.04;100.00;96615.16;4938021;28;20210;-63
2023/09/13 00:43:30;;;;;;;16.60;15.17;;;;;;;18.01;100.00;96612.97;4820242;28;20280;-60
2023/09/13 00:45:58;;;;;;;17.00;15.70;;;;;;;18.02;100.00;96625.31;4937740;28;20218;-59
2023/09/13 00:48:28;;;;;;;16.23;14.93;;;;;;;18.03;100.00;96623.47;4916255;28;20677;-63
2023/09/13 00:50:56;;;;;;;15.63;14.53;;;;;;;18.07;100.00;96622.72;4935550;28;20203;-64
2023/09/13 00:53:24;;;;;;;17.77;16.47;;;;;;;18.11;100.00;96619.53;4882158;28;20266;-65
2023/09/13 00:55:54;;;;;;;15.53;14.27;;;;;;;18.14;100.00;96617.19;4938101;28;20255;-62
2023/09/13 00:58:22;;;;;;;17.37;16.00;;;;;;;18.12;100.00;96611.25;4892854;28;20238;-61
2023/09/13 01:00:53;;;;;;;16.57;15.37;;;;;;;18.13;100.00;96614.72;4934767;28;20313;-63
2023/09/13 01:03:22;;;;;;;18.13;16.50;;;;;;;18.13;100.00;96617.41;4934851;28;20570;-66
2023/09/13 01:05:52;;;;;;;17.20;15.83;;;;;;;18.06;100.00;96613.03;4874367;28;20373;-60
2023/09/13 01:08:20;;;;;;;17.07;15.67;;;;;;;18.00;100.00;96622.03;4941114;28;20325;-61
2023/09/13 01:10:48;;;;;;;17.27;15.90;;;;;;;17.96;100.00;96628.97;4934124;28;20807;-59
2023/09/13 01:13:17;;;;;;;16.80;15.60;;;;;;;17.87;100.00;96631.22;4937646;28;20226;-63
2023/09/13 01:15:50;;;;;;;17.20;15.83;;;;;;;17.89;100.00;96626.44;4806184;28;20601;-62
2023/09/13 01:18:21;;;;;;;17.20;15.50;;;;;;;17.91;100.00;96635.03;4942501;28;20206;-63
2023/09/13 01:21:05;;;;;;;15.40;14.30;;;;;;;17.87;100.00;96641.94;4935947;28;20211;-61
2023/09/13 01:23:48;;;;;;;15.53;14.43;;;;;;;17.86;100.00;96643.00;4940281;28;20207;-59
2023/09/13 01:26:32;;;;;;;15.70;14.60;;;;;;;17.84;100.00;96631.72;4883545;28;20270;-62
2023/09/13 01:29:02;;;;;;;16.10;14.80;;;;;;;17.82;100.00;96641.06;4937618;28;20262;-61
2023/09/13 01:31:31;;;;;;;16.93;15.60;;;;;;;17.81;100.00;96642.94;4891441;28;20203;-60
2023/09/13 01:33:58;;;;;;;16.00;14.80;;;;;;;17.79;100.00;96639.69;4937290;28;20333;-62
2023/09/13 01:36:28;;;;;;;16.87;15.37;;;;;;;17.78;100.00;96635.38;4933465;28;20214;-61
2023/09/13 01:38:56;;;;;;;16.77;15.47;;;;;;;17.73;100.00;96636.09;4937759;28;20297;-60
2023/09/13 01:41:26;;;;;;;17.13;15.77;;;;;;;17.69;100.00;96634.16;4936861;28;20214;-60
2023/09/13 01:43:54;;;;;;;15.53;14.33;;;;;;;17.64;100.00;96638.38;4939641;28;20313;-62
2023/09/13 01:46:27;;;;;;;16.87;15.63;;;;;;;17.62;100.00;96637.81;4804628;28;20925;-62
2023/09/13 01:48:56;;;;;;;17.87;16.37;;;;;;;17.56;100.00;96633.41;4937249;28;20223;-65
2023/09/13 01:51:24;;;;;;;17.77;16.40;;;;;;;17.57;100.00;96644.94;4931001;28;20671;-65
2023/09/13 01:53:54;;;;;;;18.77;17.37;;;;;;;17.61;100.00;96643.41;4937685;28;20757;-58
2023/09/13 01:56:22;;;;;;;18.37;16.87;;;;;;;17.56;100.00;96651.34;4933987;28;20694;-61
2023/09/13 01:58:50;;;;;;;17.40;15.97;;;;;;;17.49;100.00;96648.81;4938082;28;20298;-62
2023/09/13 02:01:18;;;;;;;17.20;15.90;;;;;;;17.48;100.00;96642.66;4881380;28;20266;-63
2023/09/13 02:03:47;;;;;;;18.20;16.60;;;;;;;17.46;100.00;96649.31;4937747;28;20236;-65
2023/09/13 02:06:15;;;;;;;16.90;15.50;;;;;;;17.40;100.00;96650.28;4891900;28;20207;-61
2023/09/13 02:08:43;;;;;;;18.70;16.83;;;;;;;17.38;100.00;96657.75;4938816;28;20226;-62
2023/09/13 02:11:11;;;;;;;19.40;17.63;;;;;;;17.39;100.00;96654.81;4934331;28;20278;-61
2023/09/13 02:13:39;;;;;;;18.57;16.87;;;;;;;17.34;100.00;96652.88;4933886;28;20235;-60
2023/09/13 02:16:07;;;;;;;18.63;17.00;;;;;;;17.25;100.00;96657.00;4804809;28;20258;-61
2023/09/13 02:18:35;;;;;;;16.60;15.20;;;;;;;17.24;100.00;96659.91;4938935;28;20207;-63
2023/09/13 02:21:04;;;;;;;18.00;16.70;;;;;;;17.13;100.00;96651.69;4932194;28;20615;-62
2023/09/13 02:23:32;;;;;;;18.13;16.83;;;;;;;17.19;100.00;96665.97;4935698;28;20285;-63
2023/09/13 02:25:59;;;;;;;18.53;17.03;;;;;;;17.14;100.00;96664.03;4934355;28;20297;-64
2023/09/13 02:28:27;;;;;;;18.63;17.17;;;;;;;17.15;100.00;96671.00;4936569;28;20227;-62
2023/09/13 02:30:55;;;;;;;18.47;16.83;;;;;;;17.12;100.00;96676.00;4881276;28;20956;-65
2023/09/13 02:33:23;;;;;;;17.97;16.43;;;;;;;17.06;100.00;96675.91;4935868;28;20250;-62
2023/09/13 02:35:50;;;;;;;17.80;16.23;;;;;;;17.04;100.00;96677.19;4893359;28;20225;-61
2023/09/13 02:38:19;;;;;;;18.40;17.00;;;;;;;17.02;100.00;96674.75;4936607;28;20200;-63
2023/09/13 02:40:47;;;;;;;16.47;15.23;;;;;;;17.01;100.00;96674.97;4933920;28;20221;-60
2023/09/13 02:43:15;;;;;;;19.90;18.10;;;;;;;16.92;100.00;96678.00;4936631;28;20263;-59
2023/09/13 02:45:42;;;;;;;19.50;18.00;;;;;;;16.90;100.00;96676.63;4931953;28;20237;-63
2023/09/13 02:48:10;;;;;;;18.90;17.50;;;;;;;16.85;100.00;96677.34;4934203;28;20320;-59
2023/09/13 02:50:41;;;;;;;19.03;17.50;;;;;;;16.79;100.00;96680.97;4815640;28;21821;-62
2023/09/13 02:53:08;;;;;;;17.57;16.27;;;;;;;16.72;100.00;96691.00;4940390;28;20203;-63
2023/09/13 02:55:37;;;;;;;19.33;17.83;;;;;;;16.73;100.00;96689.94;4939465;28;20564;-64
2023/09/13 02:58:05;;;;;;;18.80;17.30;;;;;;;16.68;100.00;96695.97;4939176;28;20909;-62
2023/09/13 03:00:33;;;;;;;19.67;18.07;;;;;;;16.61;100.00;96700.66;4898075;28;20907;-64
2023/09/13 03:03:01;;;;;;;18.63;17.13;;;;;;;16.62;100.00;96697.72;4931875;28;20210;-60
2023/09/13 03:05:29;;;;;;;18.50;17.10;;;;;;;16.61;100.00;96692.63;4936923;28;20227;-64
2023/09/13 03:07:59;;;;;;;19.33;17.80;;;;;;;16.58;100.00;96701.13;4937276;28;20230;-62
2023/09/13 03:10:27;;;;;;;18.47;17.03;;;;;;;16.55;100.00;96698.91;4912838;28;20343;-63
2023/09/13 03:12:56;;;;;;;19.23;17.63;;;;;;;16.44;100.00;96684.50;4864940;28;20268;-63
2023/09/13 03:15:24;;;;;;;19.00;17.50;;;;;;;16.51;100.00;96698.56;4937070;28;20930;-64
2023/09/13 03:17:51;;;;;;;19.70;17.90;;;;;;;16.48;100.00;96699.84;4937936;28;20285;-63
2023/09/13 03:20:19;;;;;;;19.13;17.53;;;;;;;16.46;100.00;96701.91;4938972;28;20211;-58
2023/09/13 03:22:47;;;;;;;18.67;17.33;;;;;;;16.42;100.00;96708.78;4807521;28;20241;-61
2023/09/13 03:25:14;;;;;;;18.63;17.27;;;;;;;16.38;100.00;96704.94;4940675;28;20357;-63
2023/09/13 03:27:42;;;;;;;18.57;16.97;;;;;;;16.43;100.00;96706.94;4934111;28;20743;-63
2023/09/13 03:30:12;;;;;;;18.00;16.60;;;;;;;16.40;100.00;96696.72;4940454;28;20227;-64
2023/09/13 03:32:39;;;;;;;19.77;18.03;;;;;;;16.43;100.00;96697.03;4886378;28;21676;-63
2023/09/13 03:35:07;;;;;;;20.43;18.53;;;;;;;16.42;100.00;96690.06;4939578;28;20227;-59
2023/09/13 03:37:36;;;;;;;20.37;18.33;;;;;;;16.31;100.00;96688.22;4934578;28;20239;-61
2023/09/13 03:40:05;;;;;;;17.90;16.50;;;;;;;16.26;100.00;96690.78;4935805;28;20201;-63
2023/09/13 03:42:33;;;;;;;18.63;17.13;;;;;;;16.24;100.00;96684.84;4883260;28;20253;-61
2023/09/13 03:45:00;;;;;;;18.40;16.90;;;;;;;16.20;100.00;96681.81;4941039;28;20318;-63
2023/09/13 03:47:29;;;;;;;17.77;16.47;;;;;;;16.21;100.00;96683.44;4939227;28;20203;-60
2023/09/13 03:49:57;;;;;;;19.00;17.50;;;;;;;16.24;100.00;96696.34;4936746;28;20602;-61
2023/09/13 03:52:25;;;;;;;19.80;18.20;;;;;;;16.25;100.00;96683.81;4900611;28;20241;-59
2023/09/13 03:54:52;;;;;;;18.10;16.70;;;;;;;16.34;100.00;96693.94;4937359;28;20238;-59
2023/09/13 03:57:20;;;;;;;17.40;16.00;;;;;;;16.34;100.00;96693.94;4803914;28;21602;-59
2023/09/13 03:59:47;;;;;;;17.90;16.33;;;;;;;16.40;100.00;96694.84;4940299;28;20235;-61
2023/09/13 04:02:15;;;;;;;16.60;15.10;;;;;;;16.48;100.00;96699.84;4934036;28;20301;-63
2023/09/13 04:04:44;;;;;;;17.67;16.27;;;;;;;16.53;100.00;96701.81;4939315;28;20226;-62
2023/09/13 04:07:12;;;;;;;16.93;15.50;;;;;;;16.60;100.00;96697.16;4883044;28;20309;-61
2023/09/13 04:09:40;;;;;;;16.63;15.23;;;;;;;16.70;100.00;96693.88;4940998;28;20729;-65
2023/09/13 04:12:08;;;;;;;16.37;14.77;;;;;;;16.69;100.00;96691.47;4893525;28;20225;-63
2023/09/13 04:14:35;;;;;;;17.93;16.43;;;;;;;16.67;100.00;96690.84;4942385;28;20318;-63
2023/09/13 04:17:03;;;;;;;18.47;16.73;;;;;;;16.61;100.00;96682.72;4876429;28;20227;-59
2023/09/13 04:19:31;;;;;;;16.60;15.30;;;;;;;16.55;100.00;96685.53;4941601;28;20302;-59
2023/09/13 04:22:00;;;;;;;15.53;14.23;;;;;;;16.49;100.00;96688.13;4938235;28;20210;-65
2023/09/13 04:24:27;;;;;;;15.90;14.60;;;;;;;16.39;100.00;96682.50;4940690;28;20238;-65
2023/09/13 04:26:55;;;;;;;15.07;13.87;;;;;;;16.37;100.00;96681.94;4934763;28;20289;-60
2023/09/13 04:29:22;;;;;;;15.03;13.83;;;;;;;16.35;100.00;96692.06;4941921;28;20377;-62
2023/09/13 04:31:50;;;;;;;15.40;14.20;;;;;;;16.36;100.00;96693.69;4849210;28;20281;-62
2023/09/13 04:34:18;;;;;;;15.70;14.47;;;;;;;16.30;100.00;96702.63;4940692;28;20733;-65
2023/09/13 04:36:45;;;;;;;17.10;15.90;;;;;;;16.28;100.00;96696.72;4935723;28;20636;-64
2023/09/13 04:39:14;;;;;;;15.77;14.27;;;;;;;16.27;100.00;96689.75;4940733;28;20203;-62
2023/09/13 04:41:42;;;;;;;16.10;14.80;;;;;;;16.18;100.00;96690.09;4886131;28;20354;-61
2023/09/13 04:44:09;;;;;;;16.93;15.43;;;;;;;16.25;100.00;96697.19;4939123;28;20254;-60
2023/09/13 04:46:37;;;;;;;18.50;16.57;;;;;;;16.26;100.00;96696.94;4895435;28;20218;-60
2023/09/13 04:49:05;;;;;;;17.07;15.63;;;;;;;16.19;100.00;96699.72;4935243;28;20301;-64
2023/09/13 04:51:32;;;;;;;16.93;15.50;;;;;;;16.23;100.00;96709.97;4935554;28;20252;-60
2023/09/13 04:54:00;;;;;;;16.03;14.80;;;;;;;16.29;100.00;96703.69;4938732;28;20278;-64
2023/09/13 04:56:29;;;;;;;17.03;15.63;;;;;;;16.42;100.00;96710.66;4933213;28;20192;-63
2023/09/13 04:58:57;;;;;;;16.77;15.47;;;;;;;16.41;100.00;96707.16;4936950;28;20633;-59
2023/09/13 05:01:24;;;;;;;16.60;15.17;;;;;;;16.46;100.00;96717.16;4840739;28;21782;-65
2023/09/13 05:03:53;;;;;;;15.33;14.03;;;;;;;16.52;100.00;96710.88;4938726;28;20706;-61
2023/09/13 05:06:21;;;;;;;15.50;14.20;;;;;;;16.61;100.00;96717.50;4932042;28;20262;-64
2023/09/13 05:08:50;;;;;;;15.63;14.30;;;;;;;16.60;100.00;96712.41;4941220;28;20290;-62
2023/09/13 05:11:18;;;;;;;15.10;13.90;;;;;;;16.68;100.00;96714.69;4881020;28;21124;-61
2023/09/13 05:13:47;;;;;;;15.73;14.53;;;;;;;16.69;100.00;96724.34;4936153;28;20254;-62
2023/09/13 05:16:19;;;;;;;15.20;13.83;;;;;;;16.61;100.00;96709.47;4872839;28;21673;-62
2023/09/13 05:18:47;;;;;;;14.27;13.17;;;;;;;16.84;100.00;96715.84;4939335;28;20226;-60
2023/09/13 05:21:14;;;;;;;14.50;13.40;;;;;;;16.98;100.00;96720.94;4889016;28;20352;-64
2023/09/13 05:23:42;;;;;;;15.33;14.03;;;;;;;17.11;100.00;96720.69;4939000;28;20230;-63
2023/09/13 05:26:10;;;;;;;14.87;13.67;;;;;;;17.12;100.00;96725.00;4897576;28;20953;-63
2023/09/13 05:28:38;;;;;;;14.40;13.10;;;;;;;17.35;100.00;96726.78;4936808;28;20284;-62
2023/09/13 05:31:07;;;;;;;14.47;13.03;;;;;;;17.50;100.00;96726.25;4932596;28;20988;-62
2023/09/13 05:33:35;;;;;;;13.37;12.37;;;;;;;17.62;100.00;96728.91;4938786;28;20232;-62
2023/09/13 05:36:07;;;;;;;13.93;12.73;;;;;;;17.50;100.00;96720.06;4830735;28;21989;-61
2023/09/13 05:38:36;;;;;;;12.80;11.80;;;;;;;17.52;100.00;96750.09;4931985;28;20216;-60
2023/09/13 05:41:07;;;;;;;13.33;12.20;;;;;;;17.42;100.00;96750.72;4894008;28;20931;-66
2023/09/13 05:43:35;;;;;;;14.30;12.97;;;;;;;17.43;100.00;96763.09;4936304;28;20285;-58
2023/09/13 05:46:02;;;;;;;14.27;13.13;;;;;;;17.17;100.00;96769.78;4933028;28;20291;-66
2023/09/13 05:48:32;;;;;;;14.60;13.37;;;;;;;17.01;100.00;96774.00;4935241;28;20199;-61
2023/09/13 05:51:00;;;;;;;13.10;12.10;;;;;;;16.92;100.00;96784.25;4908563;28;21005;-61
2023/09/13 05:53:27;;;;;;;13.43;12.43;;;;;;;16.83;100.00;96789.13;4922825;28;20238;-62
2023/09/13 05:55:55;;;;;;;12.43;11.27;;;;;;;16.74;100.00;96787.84;4932163;28;20239;-63
2023/09/13 05:58:22;;;;;;;12.97;11.80;;;;;;;16.79;100.00;96788.75;4933640;28;20211;-63
2023/09/13 06:00:51;;;;;;;13.37;12.07;;;;;;;16.76;100.00;96788.44;4926827;28;20486;-63
2023/09/13 06:03:20;;;;;;;12.40;11.30;;;;;;;16.81;100.00;96790.41;4906131;28;20211;-62
2023/09/13 06:05:51;;;;;;;11.87;10.77;;;;;;;16.90;100.00;96791.69;4935045;28;20277;-61
2023/09/13 06:08:19;;;;;;;12.40;11.20;;;;;;;17.00;100.00;96804.47;4933480;28;20208;-61
2023/09/13 06:10:47;;;;;;;12.37;11.30;;;;;;;16.93;100.00;96796.56;4879495;28;20659;-63
2023/09/13 06:13:15;;;;;;;12.43;11.40;;;;;;;17.05;100.00;96805.41;4868476;28;20215;-63
2023/09/13 06:15:43;;;;;;;15.40;11.63;;;;;;;17.12;100.00;96812.50;4924333;28;20222;-64
2023/09/13 06:18:11;;;;;;;11.63;10.63;;;;;;;17.27;100.00;96812.84;4896232;28;20211;-63
2023/09/13 06:20:39;;;;;;;11.13;10.13;;;;;;;17.44;100.00;96812.91;4933832;28;20223;-66
2023/09/13 06:23:08;;;;;;;11.50;10.50;;;;;;;17.78;100.00;96806.84;4897757;28;21103;-62
2023/09/13 06:25:35;;;;;;;11.27;10.50;;;;;;;18.12;100.00;96806.13;4938643;28;21639;-65
2023/09/13 06:28:03;;;;;;;10.80;9.90;;;;;;;18.25;100.00;96813.06;4938598;28;20227;-59
2023/09/13 06:30:31;;;;;;;10.43;9.53;;;;;;;18.51;100.00;96815.09;4938565;28;20277;-64
2023/09/13 06:32:59;;;;;;;10.93;9.90;;;;;;;18.60;100.00;96807.47;4898401;28;20868;-65
2023/09/13 06:35:39;;;;;;;10.50;9.60;;;;;;;18.55;100.00;96806.56;4933193;28;20231;-66
2023/09/13 06:38:10;;;;;;;10.73;9.57;;;;;;;18.63;100.00;96806.97;4931311;28;20305;-65
2023/09/13 06:40:42;;;;;;;10.93;9.90;;;;;;;18.51;100.00;96807.06;4899977;28;20207;-61
2023/09/13 06:43:10;;;;;;;11.17;10.20;;;;;;;18.49;100.00;96817.22;4857348;28;20218;-62
2023/09/13 06:45:56;;;;;;;11.20;9.50;;;;;;;18.42;100.00;96821.94;4936208;28;20203;-67
2023/09/13 06:48:32;;;;;;;9.53;8.80;;;;;;;18.41;100.00;96816.81;4939264;28;20270;-62
2023/09/13 06:51:01;;;;;;;10.60;9.63;;;;;;;18.50;100.00;96826.88;4899659;28;21123;-64
2023/09/13 06:53:33;;;;;;;10.97;10.03;;;;;;;18.63;100.00;96814.19;4926424;28;20218;-66
2023/09/13 06:56:03;;;;;;;10.93;9.77;;;;;;;18.73;100.00;96814.34;4903868;28;21104;-62
2023/09/13 06:58:35;;;;;;;9.80;9.10;;;;;;;18.99;100.00;96820.13;4934211;28;20218;-62
2023/09/13 07:01:06;;;;;;;10.23;9.33;;;;;;;18.96;100.00;96809.84;4907414;28;20779;-65
2023/09/13 07:03:53;;;;;;;10.50;9.50;;;;;;;19.30;100.00;96822.38;4938287;28;20230;-64
2023/09/13 07:06:30;;;;;;;10.63;9.73;;;;;;;19.65;100.00;96821.19;4932295;28;20207;-60
2023/09/13 07:08:59;;;;;;;10.03;9.03;;;;;;;20.04;100.00;96823.00;4934169;28;20262;-66
2023/09/13 07:11:26;;;;;;;9.50;8.80;;;;;;;20.22;100.00;96822.63;4934001;28;20302;-63
2023/09/13 07:13:54;;;;;;;9.10;8.40;;;;;;;20.32;100.00;96821.91;4936633;28;20743;-63
2023/09/13 07:16:22;;;;;;;9.23;8.53;;;;;;;20.57;100.00;96822.38;4803834;28;21726;-65
2023/09/13 07:18:50;;;;;;;8.67;8.07;;;;;;;20.69;100.00;96828.41;4940733;28;20199;-64
2023/09/13 07:21:18;;;;;;;9.07;8.37;;;;;;;20.92;100.00;96811.09;4881950;28;20278;-63
2023/09/13 07:23:46;;;;;;;8.50;7.80;;;;;;;21.21;100.00;96823.34;4937181;28;20339;-65
2023/09/13 07:26:15;;;;;;;8.37;7.80;;;;;;;21.11;100.00;96829.47;4934578;28;20242;-61
2023/09/13 07:28:42;;;;;;;8.53;7.73;;;;;;;21.22;100.00;96825.78;4933194;28;20287;-62
2023/09/13 07:31:11;;;;;;;8.53;7.83;;;;;;;21.24;100.00;96818.25;4886762;28;21009;-63
2023/09/13 07:33:40;;;;;;;7.67;7.07;;;;;;;21.24;100.00;96822.81;4932639;28;20211;-64
2023/09/13 07:36:08;;;;;;;7.80;7.10;;;;;;;21.50;100.00;96825.66;4906193;28;20926;-62
2023/09/13 07:38:37;;;;;;;7.57;6.93;;;;;;;21.68;100.00;96819.00;4936104;28;20207;-60
2023/09/13 07:41:05;;;;;;;7.40;6.90;;;;;;;21.49;100.00;96821.31;4938201;28;20298;-66
2023/09/13 07:43:34;;;;;;;8.00;7.20;;;;;;;21.18;100.00;96823.88;4940801;28;20203;-64
2023/09/13 07:46:03;;;;;;;7.40;6.90;;;;;;;21.17;100.00;96817.66;4935398;28;20219;-66
2023/09/13 07:48:31;;;;;;;7.37;6.87;;;;;;;21.07;100.00;96823.00;4936861;28;20231;-64
2023/09/13 07:50:59;;;;;;;7.87;7.17;;;;;;;21.08;100.00;96821.94;4881632;28;21895;-64
2023/09/13 07:53:27;;;;;;;7.87;7.27;;;;;;;21.19;100.00;96830.88;4915677;28;20294;-62
2023/09/13 07:55:59;;;;;;;7.23;6.70;;;;;;;21.35;100.00;96832.56;4937458;28;20230;-64
2023/09/13 07:58:27;;;;;;;7.70;7.10;;;;;;;21.46;100.00;96830.72;4938592;28;20203;-66
2023/09/13 08:00:56;;;;;;;7.27;6.67;;;;;;;21.49;100.00;96827.50;4917605;28;20215;-64
2023/09/13 08:03:24;;;;;;;6.67;6.27;;;;;;;21.53;100.00;96835.91;4922412;28;20296;-64
2023/09/13 08:05:52;;;;;;;7.53;6.63;;;;;;;21.83;100.00;96835.22;4938465;28;20649;-68
2023/09/13 08:08:22;;;;;;;7.27;6.50;;;;;;;22.00;100.00;96836.06;4935842;28;20235;-63
2023/09/13 08:10:51;;;;;;;6.67;6.17;;;;;;;22.03;100.00;96839.06;4928500;28;20297;-64
2023/09/13 08:13:20;;;;;;;6.77;6.27;;;;;;;22.00;100.00;96849.53;4913012;28;20239;-63
2023/09/13 08:15:47;;;;;;;6.27;5.87;;;;;;;21.83;100.00;96846.00;4935319;28;20609;-63
2023/09/13 08:18:18;;;;;;;6.17;5.67;;;;;;;21.83;100.00;96848.69;4938673;28;20203;-61
2023/09/13 08:20:46;;;;;;;6.37;5.77;;;;;;;21.89;100.00;96848.69;4938168;28;20231;-65
2023/09/13 08:23:14;;;;;;;6.10;5.70;;;;;;;21.71;100.00;96845.44;4937404;28;20253;-66
2023/09/13 08:25:42;;;;;;;5.20;4.90;;;;;;;21.84;100.00;96860.31;4894802;28;20901;-64
2023/09/13 08:28:10;;;;;;;5.57;5.10;;;;;;;21.86;100.00;96860.84;4859369;28;20229;-59
2023/09/13 08:30:38;;;;;;;7.17;5.70;;;;;;;21.92;100.00;96867.03;4939640;28;20254;-65
2023/09/13 08:33:06;;;;;;;6.20;5.53;;;;;;;21.79;100.00;96876.47;4935872;28;20219;-62
2023/09/13 08:35:36;;;;;;;10.53;5.37;;;;;;;21.93;100.00;96865.97;4937592;28;20233;-61
2023/09/13 08:38:04;;;;;;;5.77;5.33;;;;;;;22.02;100.00;96868.97;4895574;28;20256;-64
2023/09/13 08:40:32;;;;;;;5.63;5.30;;;;;;;22.69;100.00;96874.50;4935499;28;20234;-63
2023/09/13 08:43:00;;;;;;;8.27;5.30;;;;;;;22.88;100.00;96876.63;4935191;28;20634;-63
2023/09/13 08:45:29;;;;;;;5.83;5.27;;;;;;;23.33;100.00;96879.56;4941330;28;20664;-66
2023/09/13 08:48:01;;;;;;;5.43;5.07;;;;;;;23.36;100.00;96877.13;4897108;28;20301;-62
2023/09/13 08:50:30;;;;;;;5.23;4.83;;;;;;;23.31;100.00;96885.25;4938567;28;20261;-64
2023/09/13 08:53:01;;;;;;;5.50;5.10;;;;;;;23.29;100.00;96879.28;4937689;28;20752;-61
2023/09/13 08:55:31;;;;;;;5.23;4.93;;;;;;;23.22;100.00;96884.16;4940886;28;20571;-65
2023/09/13 08:58:00;;;;;;;5.20;4.87;;;;;;;23.22;100.00;96881.44;4934591;28;20204;-61
2023/09/13 09:00:30;;;;;;;5.00;4.70;;;;;;;23.13;100.00;96878.50;4941507;28;20294;-64
2023/09/13 09:03:01;;;;;;;10.30;5.20;;;;;;;23.46;100.00;96892.50;4820781;28;20306;-64
2023/09/13 09:05:31;;;;;;;4.93;4.63;;;;;;;23.33;100.00;96893.91;4940849;28;20250;-64
2023/09/13 09:08:02;;;;;;;4.80;4.50;;;;;;;23.16;100.00;96891.47;4937677;28;20199;-64
2023/09/13 09:10:31;;;;;;;5.00;4.60;;;;;;;23.04;100.00;96893.63;4938069;28;20203;-61
2023/09/13 09:13:00;;;;;;;4.50;4.20;;;;;;;23.36;100.00;96890.66;4893386;28;20322;-61
2023/09/13 09:15:28;;;;;;;4.43;4.10;;;;;;;23.26;100.00;96901.47;4940988;28;20258;-65
2023/09/13 09:17:57;;;;;;;5.00;4.60;;;;;;;22.94;100.00;96902.56;4895107;28;20219;-64
2023/09/13 09:20:28;;;;;;;4.93;4.40;;;;;;;22.96;100.00;96901.22;4939005;28;20215;-57
2023/09/13 09:22:58;;;;;;;4.43;4.13;;;;;;;22.63;100.00;96913.38;4933321;28;20222;-64
2023/09/13 09:25:30;;;;;;;4.60;4.20;;;;;;;22.96;100.00;96920.13;4940967;28;20230;-64
2023/09/13 09:27:58;;;;;;;4.33;3.97;;;;;;;22.73;100.00;96921.47;4935486;28;20212;-62
2023/09/13 09:30:35;;;;;;;4.70;4.30;;;;;;;22.86;100.00;96916.59;4937854;28;20290;-65
2023/09/13 09:33:03;;;;;;;4.40;4.10;;;;;;;22.93;100.00;96915.25;4935836;28;20247;-65
2023/09/13 09:35:31;;;;;;;4.47;4.07;;;;;;;23.01;100.00;96910.38;4924332;28;20274;-64
2023/09/13 09:37:59;;;;;;;7.20;3.97;;;;;;;23.12;100.00;96929.03;4825896;28;20230;-63
2023/09/13 09:40:29;;;;;;;4.17;3.87;;;;;;;23.00;100.00;96923.09;4940131;28;20211;-64
2023/09/13 09:42:58;;;;;;;4.53;4.23;;;;;;;22.65;100.00;96927.41;4931270;28;20755;-61
2023/09/13 09:45:25;;;;;;;4.30;4.00;;;;;;;22.88;100.00;96927.94;4939020;28;20884;-61
2023/09/13 09:47:53;;;;;;;4.93;4.47;;;;;;;22.80;100.00;96930.13;4891729;28;20479;-62
2023/09/13 09:50:22;;;;;;;4.73;4.43;;;;;;;22.88;100.00;96931.47;4938171;28;20203;-65
2023/09/13 09:52:50;;;;;;;3.80;3.60;;;;;;;22.44;100.00;96923.84;4894152;28;20214;-65
2023/09/13 09:55:21;;;;;;;4.57;4.27;;;;;;;22.52;100.00;96913.34;4937109;28;20773;-62
2023/09/13 09:57:51;;;;;;;3.70;3.50;;;;;;;22.58;100.00;96926.88;4929022;28;20203;-64
2023/09/13 10:00:19;;;;;;;5.00;3.87;;;;;;;22.57;100.00;96926.03;4938027;28;20295;-61
2023/09/13 10:02:47;;;;;;;4.00;3.80;;;;;;;22.49;100.00;96929.28;4933010;28;20191;-64
2023/09/13 10:05:17;;;;;;;4.60;4.17;;;;;;;22.36;100.00;96926.00;4937851;28;20749;-63
2023/09/13 10:07:50;;;;;;;4.80;4.40;;;;;;;22.51;100.00;96927.13;4805078;28;20795;-61
2023/09/13 10:10:29;;;;;;;4.50;4.20;;;;;;;22.37;100.00;96916.00;4940123;28;20230;-65
2023/09/13 10:12:58;;;;;;;4.47;4.17;;;;;;;22.66;100.00;96937.94;4933195;28;20928;-62
2023/09/13 10:15:26;;;;;;;4.03;3.70;;;;;;;22.80;100.00;96937.41;4937867;28;20223;-63
2023/09/13 10:17:54;;;;;;;4.80;4.50;;;;;;;23.10;100.00;96931.19;4891427;28;20302;-62
2023/09/13 10:20:24;;;;;;;4.53;4.33;;;;;;;23.47;100.00;96931.16;4936064;28;20214;-63
2023/09/13 10:22:55;;;;;;;4.27;4.07;;;;;;;23.44;100.00;96926.31;4933378;28;20207;-63
2023/09/13 10:25:25;;;;;;;4.97;4.60;;;;;;;23.54;100.00;96924.41;4937597;28;20276;-62
2023/09/13 10:27:54;;;;;;;4.67;4.37;;;;;;;23.60;100.00;96922.47;4898009;28;20302;-63
2023/09/13 10:30:27;;;;;;;4.90;4.60;;;;;;;23.40;100.00;96928.75;4939777;28;20297;-65
2023/09/13 10:32:58;;;;;;;4.53;4.33;;;;;;;23.29;100.00;96930.66;4931958;28;20235;-62
2023/09/13 10:35:27;;;;;;;5.27;4.80;;;;;;;23.84;100.00;96925.38;4938227;28;20218;-64
2023/09/13 10:38:04;;;;;;;5.17;4.67;;;;;;;24.19;100.00;96922.81;4932074;28;20216;-60
2023/09/13 10:40:36;;;;;;;5.37;4.90;;;;;;;24.50;100.00;96913.69;4923058;28;20630;-64
2023/09/13 10:43:05;;;;;;;4.30;4.00;;;;;;;24.47;100.00;96917.78;4839764;28;20207;-65
2023/09/13 10:45:34;;;;;;;4.40;4.10;;;;;;;24.74;100.00;96923.81;4940090;28;20258;-64
2023/09/13 10:48:03;;;;;;;4.87;3.97;;;;;;;24.37;100.00;96923.25;4933839;28;20230;-63
2023/09/13 10:50:31;;;;;;;4.77;4.47;;;;;;;24.27;100.00;96918.72;4941334;28;20206;-65
2023/09/13 10:53:00;;;;;;;4.03;3.83;;;;;;;24.10;100.00;96914.47;4894677;28;20243;-62
2023/09/13 10:55:28;;;;;;;4.20;3.90;;;;;;;23.62;100.00;96914.88;4937910;28;20303;-61
2023/09/13 10:57:56;;;;;;;4.30;4.10;;;;;;;23.45;100.00;96919.81;4929905;28;20653;-63
2023/09/13 11:00:26;;;;;;;4.37;4.17;;;;;;;23.23;100.00;96904.69;4936934;28;20206;-66
2023/09/13 11:02:55;;;;;;;4.87;4.27;;;;;;;22.59;100.00;96899.59;4896720;28;20346;-62
2023/09/13 11:05:22;;;;;;;3.57;3.37;;;;;;;22.82;100.00;96906.34;4937172;28;20285;-62
2023/09/13 11:07:50;;;;;;;4.07;3.77;;;;;;;22.79;100.00;96917.69;4929157;28;20659;-63
2023/09/13 11:10:20;;;;;;;4.80;3.40;;;;;;;22.88;100.00;96920.66;4935343;28;20269;-63
2023/09/13 11:12:50;;;;;;;3.57;3.40;;;;;;;23.16;100.00;96918.50;4806151;28;21334;-64
2023/09/13 11:15:22;;;;;;;4.73;3.20;;;;;;;23.17;100.00;96920.13;4941107;28;20227;-65
2023/09/13 11:17:51;;;;;;;4.10;3.90;;;;;;;23.64;100.00;96920.84;4935407;28;20277;-66
2023/09/13 11:20:24;;;;;;;3.53;3.23;;;;;;;23.60;100.00;96924.38;4942562;28;20634;-62
2023/09/13 11:23:09;;;;;;;3.67;3.47;;;;;;;23.62;100.00;96928.41;4892752;28;21061;-64